Time;durP1;ratioP1;P1;durP2;ratioP2;P2;SDS_P1;SDS_P2;PMS_P1;PMS_P2;Temp;Humidity;BMP_temperature;BMP_pressure;BME280_temperature;BME280_humidity;BME280_pressure;Samples;Min_cycle;Max_cycle;Signal;HPM_P1;HPM_P2
2023/09/13 00:00:33;;;;;;;11.23;8.93;;;;;;;23.25;nan;99307.00;4931025;28;20211;-78
2023/09/13 00:02:58;;;;;;;10.00;8.17;;;;;;;23.16;nan;99312.44;4938480;28;20267;-78
2023/09/13 00:05:24;;;;;;;10.40;8.67;;;;;;;23.10;nan;99304.34;4933043;28;20229;-79
2023/09/13 00:07:49;;;;;;;10.97;8.73;;;;;;;23.02;nan;99297.22;4933587;28;20595;-79
2023/09/13 00:10:15;;;;;;;10.13;8.90;;;;;;;22.97;nan;99292.41;4934842;28;20240;-78
2023/09/13 00:12:40;;;;;;;10.53;8.10;;;;;;;22.96;nan;99297.97;4936443;28;20229;-79
2023/09/13 00:15:06;;;;;;;9.93;8.93;;;;;;;22.97;nan;99311.16;4929706;28;20256;-78
2023/09/13 00:17:31;;;;;;;10.03;8.47;;;;;;;22.99;nan;99302.97;4932894;28;20238;-78
2023/09/13 00:19:57;;;;;;;10.60;9.60;;;;;;;22.97;nan;99304.97;4928630;28;20464;-79
2023/09/13 00:22:23;;;;;;;11.20;8.73;;;;;;;22.95;nan;99302.47;4931460;28;20216;-79
2023/09/13 00:24:48;;;;;;;10.03;7.83;;;;;;;22.97;nan;99315.69;4932929;28;20678;-78
2023/09/13 00:27:14;;;;;;;10.77;9.67;;;;;;;22.97;nan;99326.41;4933167;28;20762;-78
2023/09/13 00:29:39;;;;;;;12.03;7.40;;;;;;;22.96;nan;99325.59;4934584;28;20210;-79
2023/09/13 00:32:05;;;;;;;11.00;7.80;;;;;;;22.94;nan;99321.41;4934274;28;20524;-78
2023/09/13 00:34:31;;;;;;;8.03;6.23;;;;;;;22.88;nan;99322.97;4934353;28;20221;-78
2023/09/13 00:36:56;;;;;;;9.40;8.40;;;;;;;22.89;nan;99337.19;4920830;28;20451;-78
2023/09/13 00:39:22;;;;;;;8.13;6.80;;;;;;;22.86;nan;99332.19;4932722;28;20532;-79
2023/09/13 00:41:47;;;;;;;8.57;6.80;;;;;;;22.83;nan;99335.25;4920486;28;20237;-78
2023/09/13 00:44:13;;;;;;;7.87;6.60;;;;;;;22.82;nan;99346.97;4933548;28;20197;-78
2023/09/13 00:46:38;;;;;;;8.40;7.27;;;;;;;22.80;nan;99351.69;4934390;28;20224;-78
2023/09/13 00:49:04;;;;;;;8.43;7.63;;;;;;;22.74;nan;99347.91;4933025;28;20329;-78
2023/09/13 00:51:30;;;;;;;12.50;7.30;;;;;;;22.70;nan;99342.06;4916383;28;20590;-78
2023/09/13 00:53:57;;;;;;;7.90;5.90;;;;;;;22.65;nan;99336.41;4931172;28;20208;-78
2023/09/13 00:56:23;;;;;;;5.90;5.30;;;;;;;22.60;nan;99336.16;4934991;28;20587;-78
2023/09/13 00:58:51;;;;;;;9.67;5.70;;;;;;;22.56;nan;99334.84;4936780;28;21038;-78
2023/09/13 01:01:17;;;;;;;10.13;6.03;;;;;;;22.52;nan;99323.66;4933689;28;20587;-78
2023/09/13 01:03:43;;;;;;;7.30;6.10;;;;;;;22.49;nan;99313.34;4934067;28;21135;-78
2023/09/13 01:06:09;;;;;;;7.73;6.00;;;;;;;22.49;nan;99316.00;4932121;28;20653;-78
2023/09/13 01:08:39;;;;;;;6.00;5.40;;;;;;;22.47;nan;99317.19;4935849;28;20438;-78
2023/09/13 01:11:06;;;;;;;8.93;6.47;;;;;;;22.45;nan;99322.72;4935225;28;20554;-78
2023/09/13 01:13:32;;;;;;;6.30;4.70;;;;;;;22.42;nan;99317.75;4931119;28;20924;-77
2023/09/13 01:16:14;;;;;;;6.27;5.43;;;;;;;22.37;nan;99319.28;4930872;28;20447;-78
2023/09/13 01:19:20;;;;;;;5.53;5.00;;;;;;;22.21;nan;99314.91;4915929;28;20307;-78
2023/09/13 01:22:29;;;;;;;6.90;5.93;;;;;;;22.05;nan;99308.63;4906943;29;20957;-78
2023/09/13 01:25:32;;;;;;;10.27;6.63;;;;;;;21.95;nan;99312.56;4933804;28;20431;-78
2023/09/13 01:28:55;;;;;;;9.27;6.70;;;;;;;21.91;nan;99305.91;4903258;28;20442;-78
2023/09/13 01:31:21;;;;;;;10.90;6.50;;;;;;;21.84;nan;99309.28;4864125;29;21001;-78
2023/09/13 01:33:47;;;;;;;10.90;8.23;;;;;;;21.80;nan;99296.47;4840480;29;20959;-78
2023/09/13 01:36:14;;;;;;;7.93;7.13;;;;;;;21.75;nan;99299.66;4886716;28;20723;-78
2023/09/13 01:38:39;;;;;;;7.87;6.93;;;;;;;21.71;nan;99295.69;4916652;28;20443;-78
2023/09/13 01:41:18;;;;;;;6.97;6.27;;;;;;;21.73;nan;99301.66;4910221;29;20444;-78
2023/09/13 01:43:45;;;;;;;8.43;6.13;;;;;;;21.73;nan;99320.38;4914002;28;20374;-78
2023/09/13 01:46:15;;;;;;;8.13;6.80;;;;;;;21.76;nan;99319.19;4933404;28;20456;-78
2023/09/13 01:48:41;;;;;;;8.17;6.90;;;;;;;21.75;nan;99325.56;4916250;28;20894;-78
2023/09/13 01:51:08;;;;;;;8.33;7.53;;;;;;;21.73;nan;99309.69;4930677;28;20964;-77
2023/09/13 01:53:45;;;;;;;10.37;6.37;;;;;;;21.71;nan;99309.06;4935764;28;20560;-78
2023/09/13 01:56:11;;;;;;;6.90;6.20;;;;;;;21.68;nan;99314.72;4933916;28;20844;-77
2023/09/13 01:58:36;;;;;;;7.37;6.60;;;;;;;21.68;nan;99313.91;4910514;29;20469;-78
2023/09/13 02:01:02;;;;;;;10.80;6.63;;;;;;;21.63;nan;99320.63;4907812;29;20210;-77
2023/09/13 02:03:27;;;;;;;6.47;5.80;;;;;;;21.58;nan;99341.69;4931183;28;20223;-77
2023/09/13 02:05:53;;;;;;;12.73;6.03;;;;;;;21.49;nan;99342.72;4933857;28;20185;-78
2023/09/13 02:08:18;;;;;;;9.87;6.13;;;;;;;21.43;nan;99335.41;4909500;28;20264;-78
2023/09/13 02:10:47;;;;;;;7.03;6.13;;;;;;;21.44;nan;99331.72;4916092;28;20441;-78
2023/09/13 02:13:13;;;;;;;8.27;5.70;;;;;;;21.45;nan;99330.75;4928663;28;20218;-78
2023/09/13 02:15:40;;;;;;;9.10;6.20;;;;;;;21.46;nan;99335.06;4918833;28;20887;-78
2023/09/13 02:18:05;;;;;;;8.23;6.80;;;;;;;21.50;nan;99351.59;4921337;29;20329;-78
2023/09/13 02:20:31;;;;;;;8.13;6.07;;;;;;;21.51;nan;99343.41;4930026;28;20456;-78
2023/09/13 02:22:56;;;;;;;6.20;5.40;;;;;;;21.50;nan;99346.25;4921609;28;20212;-78
2023/09/13 02:25:22;;;;;;;6.07;4.77;;;;;;;21.45;nan;99352.13;4923072;28;20839;-78
2023/09/13 02:27:47;;;;;;;5.70;4.87;;;;;;;21.39;nan;99367.00;4933244;28;23226;-78
2023/09/13 02:30:13;;;;;;;8.40;4.30;;;;;;;21.36;nan;99361.13;4919179;28;20207;-78
2023/09/13 02:32:38;;;;;;;5.00;4.27;;;;;;;21.35;nan;99357.63;4931894;28;20220;-77
2023/09/13 02:35:05;;;;;;;4.20;3.80;;;;;;;21.38;nan;99356.47;4930455;28;20229;-78
2023/09/13 02:37:30;;;;;;;6.40;4.57;;;;;;;21.40;nan;99360.66;4912933;28;20204;-78
2023/09/13 02:39:57;;;;;;;5.13;4.00;;;;;;;21.39;nan;99350.97;4929828;28;20916;-78
2023/09/13 02:42:23;;;;;;;4.20;3.80;;;;;;;21.33;nan;99338.28;4931208;28;20223;-77
2023/09/13 02:44:49;;;;;;;5.17;3.67;;;;;;;21.29;nan;99330.78;4930001;28;20459;-78
2023/09/13 02:47:14;;;;;;;4.17;3.20;;;;;;;21.29;nan;99328.94;4926870;28;20441;-78
2023/09/13 02:49:40;;;;;;;3.47;3.17;;;;;;;21.28;nan;99329.97;4931235;28;20209;-78
2023/09/13 02:52:06;;;;;;;3.83;3.03;;;;;;;21.22;nan;99319.94;4931961;28;20299;-78
2023/09/13 02:54:31;;;;;;;5.50;3.77;;;;;;;21.12;nan;99330.03;4916057;28;20291;-78
2023/09/13 02:56:57;;;;;;;5.77;3.43;;;;;;;21.05;nan;99329.03;4932264;28;20633;-78
2023/09/13 02:59:26;;;;;;;6.50;4.37;;;;;;;21.04;nan;99324.72;4911699;28;20291;-78
2023/09/13 03:01:51;;;;;;;7.47;4.50;;;;;;;21.00;nan;99326.88;4931495;28;21199;-78
2023/09/13 03:04:17;;;;;;;5.50;4.43;;;;;;;20.93;nan;99341.94;4918025;28;20204;-78
2023/09/13 03:06:44;;;;;;;4.77;4.37;;;;;;;20.92;nan;99343.75;4912871;29;20821;-78
2023/09/13 03:09:09;;;;;;;7.40;5.03;;;;;;;20.98;nan;99337.75;4923776;28;20833;-78
2023/09/13 03:11:36;;;;;;;5.53;4.80;;;;;;;21.04;nan;99336.22;4920922;28;20719;-78
2023/09/13 03:14:03;;;;;;;6.80;5.17;;;;;;;21.08;nan;99334.03;4913847;28;20816;-78
2023/09/13 03:16:28;;;;;;;8.10;4.97;;;;;;;21.09;nan;99327.66;4916005;28;20474;-78
2023/09/13 03:18:54;;;;;;;5.60;5.03;;;;;;;21.07;nan;99327.03;4915859;28;20419;-79
2023/09/13 03:21:24;;;;;;;6.87;4.80;;;;;;;21.09;nan;99331.19;4914203;28;20335;-78
2023/09/13 03:23:50;;;;;;;5.60;4.73;;;;;;;21.16;nan;99331.31;4915859;29;20440;-79
2023/09/13 03:26:21;;;;;;;8.10;5.77;;;;;;;21.19;nan;99315.78;4910062;29;20452;-78
2023/09/13 03:28:54;;;;;;;7.23;4.90;;;;;;;21.19;nan;99312.28;4919187;28;20462;-79
2023/09/13 03:31:22;;;;;;;5.70;4.93;;;;;;;21.18;nan;99322.13;4921495;28;20492;-79
2023/09/13 03:33:50;;;;;;;8.03;5.50;;;;;;;21.14;nan;99323.50;4916070;29;20461;-78
2023/09/13 03:36:16;;;;;;;6.13;5.47;;;;;;;21.13;nan;99323.66;4915686;29;21002;-80
2023/09/13 03:38:46;;;;;;;6.97;6.03;;;;;;;21.14;nan;99322.66;4928371;29;20806;-79
2023/09/13 03:41:14;;;;;;;6.00;5.40;;;;;;;21.17;nan;99323.16;4912611;28;20833;-79
2023/09/13 03:43:40;;;;;;;5.27;4.60;;;;;;;21.17;nan;99322.28;4914120;28;20460;-80
2023/09/13 03:46:07;;;;;;;7.73;5.23;;;;;;;21.12;nan;99328.19;4918672;28;20482;-79
2023/09/13 03:48:35;;;;;;;9.10;4.90;;;;;;;21.04;nan;99328.22;4903092;28;20438;-79
2023/09/13 03:51:01;;;;;;;5.73;4.70;;;;;;;20.96;nan;99323.72;4931361;28;20447;-79
2023/09/13 03:53:27;;;;;;;7.43;4.80;;;;;;;20.92;nan;99322.38;4907829;29;20620;-79
2023/09/13 03:55:53;;;;;;;4.80;4.27;;;;;;;20.92;nan;99321.56;4934050;28;20372;-79
2023/09/13 03:58:19;;;;;;;5.57;4.60;;;;;;;20.91;nan;99323.41;4922808;28;20456;-79
2023/09/13 04:00:45;;;;;;;7.67;4.60;;;;;;;20.92;nan;99318.88;4931637;28;20881;-80
2023/09/13 04:03:11;;;;;;;7.33;4.60;;;;;;;20.93;nan;99326.75;4931115;28;20448;-80
2023/09/13 04:05:37;;;;;;;5.47;4.70;;;;;;;20.92;nan;99318.88;4921963;28;20829;-79
2023/09/13 04:08:03;;;;;;;4.97;4.40;;;;;;;20.91;nan;99323.41;4934681;28;20449;-79
2023/09/13 04:10:29;;;;;;;5.40;4.80;;;;;;;20.90;nan;99313.72;4936491;28;20536;-79
2023/09/13 04:12:54;;;;;;;6.83;5.27;;;;;;;20.90;nan;99316.41;4930178;28;20627;-79
2023/09/13 04:15:20;;;;;;;7.17;5.33;;;;;;;20.90;nan;99324.41;4936018;28;20244;-79
2023/09/13 04:17:45;;;;;;;6.10;5.20;;;;;;;20.91;nan;99323.41;4922618;28;20736;-79
2023/09/13 04:20:11;;;;;;;6.60;4.60;;;;;;;20.95;nan;99324.72;4921751;28;20197;-79
2023/09/13 04:22:37;;;;;;;7.10;5.17;;;;;;;20.97;nan;99322.69;4919663;28;20215;-79
2023/09/13 04:25:04;;;;;;;6.00;5.40;;;;;;;20.98;nan;99327.06;4921336;28;20431;-78
2023/09/13 04:27:30;;;;;;;5.20;4.63;;;;;;;21.01;nan;99333.91;4917481;28;20525;-78
2023/09/13 04:29:55;;;;;;;5.40;4.90;;;;;;;21.03;nan;99331.84;4914480;28;21308;-79
2023/09/13 04:32:21;;;;;;;5.17;4.43;;;;;;;21.05;nan;99334.38;4920390;28;20693;-78
2023/09/13 04:34:47;;;;;;;6.00;4.47;;;;;;;21.07;nan;99337.72;4920913;28;20824;-79
2023/09/13 04:37:15;;;;;;;6.87;4.60;;;;;;;21.12;nan;99340.72;4920757;28;20437;-78
2023/09/13 04:39:40;;;;;;;7.80;5.77;;;;;;;21.14;nan;99352.03;4915502;29;20469;-79
2023/09/13 04:42:06;;;;;;;6.43;5.50;;;;;;;21.15;nan;99357.22;4925000;28;20824;-78
2023/09/13 04:44:32;;;;;;;6.80;4.90;;;;;;;21.15;nan;99359.06;4933464;28;20620;-78
2023/09/13 04:46:58;;;;;;;7.90;4.97;;;;;;;21.14;nan;99352.03;4921654;28;20283;-78
2023/09/13 04:49:24;;;;;;;6.90;5.60;;;;;;;21.13;nan;99361.06;4922384;28;20203;-79
2023/09/13 04:51:49;;;;;;;9.93;5.93;;;;;;;21.11;nan;99357.72;4935683;28;20741;-79
2023/09/13 04:54:15;;;;;;;6.27;4.30;;;;;;;21.09;nan;99359.72;4938316;28;20338;-79
2023/09/13 04:56:40;;;;;;;8.03;4.47;;;;;;;21.09;nan;99362.38;4923730;28;20216;-79
2023/09/13 04:59:06;;;;;;;6.37;5.00;;;;;;;21.09;nan;99368.59;4917279;28;20627;-79
2023/09/13 05:01:31;;;;;;;7.27;5.83;;;;;;;21.08;nan;99371.41;4918169;28;20209;-80
2023/09/13 05:03:58;;;;;;;8.00;5.43;;;;;;;21.07;nan;99369.75;4940176;28;20199;-76
2023/09/13 05:06:24;;;;;;;9.80;4.97;;;;;;;21.05;nan;99366.41;4940064;28;20273;-78
2023/09/13 05:08:52;;;;;;;5.93;5.10;;;;;;;21.03;nan;99368.41;4931948;28;20524;-78
2023/09/13 05:11:21;;;;;;;7.33;5.57;;;;;;;20.98;nan;99369.78;4927338;28;21011;-78
2023/09/13 05:13:47;;;;;;;6.33;5.50;;;;;;;20.92;nan;99370.44;4937563;28;20431;-77
2023/09/13 05:16:14;;;;;;;7.40;5.37;;;;;;;20.90;nan;99383.16;4936048;28;20543;-78
2023/09/13 05:18:39;;;;;;;5.50;4.70;;;;;;;20.86;nan;99387.16;4922706;28;20441;-77
2023/09/13 05:21:05;;;;;;;7.83;5.03;;;;;;;20.84;nan;99391.81;4936344;28;20609;-77
2023/09/13 05:23:30;;;;;;;5.17;3.93;;;;;;;20.84;nan;99390.97;4938313;28;20281;-77
2023/09/13 05:25:56;;;;;;;6.03;4.73;;;;;;;20.84;nan;99390.97;4937863;28;20208;-77
2023/09/13 05:28:21;;;;;;;6.63;4.73;;;;;;;20.87;nan;99395.97;4940865;28;20287;-76
2023/09/13 05:30:48;;;;;;;6.63;3.97;;;;;;;20.91;nan;99403.50;4933950;28;20212;-77
2023/09/13 05:33:14;;;;;;;8.47;5.20;;;;;;;20.97;nan;99405.47;4936648;28;20443;-77
2023/09/13 05:35:40;;;;;;;4.87;4.30;;;;;;;21.00;nan;99394.44;4935487;28;20786;-77
2023/09/13 05:38:05;;;;;;;6.47;4.93;;;;;;;21.03;nan;99398.63;4931867;28;20207;-75
2023/09/13 05:40:31;;;;;;;6.10;4.60;;;;;;;21.06;nan;99397.44;4938765;28;20217;-77
2023/09/13 05:42:57;;;;;;;5.13;3.90;;;;;;;21.11;nan;99403.94;4938366;28;20251;-77
2023/09/13 05:45:25;;;;;;;4.93;4.43;;;;;;;21.13;nan;99406.47;4915922;28;20559;-77
2023/09/13 05:47:50;;;;;;;7.10;4.10;;;;;;;21.13;nan;99409.13;4931631;28;20663;-78
2023/09/13 05:50:16;;;;;;;5.63;4.37;;;;;;;21.13;nan;99406.47;4935460;28;21168;-77
2023/09/13 05:52:43;;;;;;;5.33;4.70;;;;;;;21.13;nan;99406.47;4930153;28;20224;-77
2023/09/13 05:55:09;;;;;;;5.40;4.60;;;;;;;21.09;nan;99408.66;4925150;28;20212;-78
2023/09/13 05:57:34;;;;;;;6.17;4.53;;;;;;;21.10;nan;99404.13;4927740;28;20537;-78
2023/09/13 05:59:59;;;;;;;7.60;6.20;;;;;;;21.12;nan;99402.97;4927188;28;20311;-77
2023/09/13 06:02:25;;;;;;;7.27;6.20;;;;;;;21.15;nan;99401.78;4931434;28;20216;-78
2023/09/13 06:04:50;;;;;;;7.00;4.50;;;;;;;21.15;nan;99405.28;4928912;28;20519;-75
2023/09/13 06:07:16;;;;;;;8.70;6.00;;;;;;;21.18;nan;99410.28;4927912;28;20207;-77
2023/09/13 06:09:41;;;;;;;8.53;6.33;;;;;;;21.17;nan;99413.97;4927366;28;20217;-75
2023/09/13 06:12:07;;;;;;;6.80;5.10;;;;;;;21.20;nan;99407.44;4928768;28;20239;-77
2023/09/13 06:14:32;;;;;;;7.40;5.73;;;;;;;21.24;nan;99408.75;4926245;28;20197;-77
2023/09/13 06:16:58;;;;;;;4.57;4.10;;;;;;;21.26;nan;99406.75;4929762;28;21129;-77
2023/09/13 06:19:23;;;;;;;6.77;5.40;;;;;;;21.29;nan;99425.13;4924348;28;20192;-77
2023/09/13 06:21:49;;;;;;;5.60;5.10;;;;;;;21.27;nan;99419.09;4926796;28;20208;-77
2023/09/13 06:24:14;;;;;;;7.30;4.43;;;;;;;21.26;nan;99417.44;4925680;28;20193;-77
2023/09/13 06:26:40;;;;;;;7.90;4.90;;;;;;;21.24;nan;99413.28;4924999;28;20258;-77
2023/09/13 06:29:05;;;;;;;5.33;4.33;;;;;;;21.23;nan;99412.44;4925060;28;20720;-77
2023/09/13 06:31:32;;;;;;;4.63;4.20;;;;;;;21.23;nan;99412.44;4924452;28;20550;-76
2023/09/13 06:33:58;;;;;;;4.30;3.13;;;;;;;21.25;nan;99420.28;4924714;28;20204;-75
2023/09/13 06:36:23;;;;;;;4.67;3.70;;;;;;;21.29;nan;99417.09;4923960;28;20469;-77
2023/09/13 06:38:49;;;;;;;6.73;4.40;;;;;;;21.35;nan;99421.75;4915390;28;20204;-77
2023/09/13 06:41:14;;;;;;;6.27;4.40;;;;;;;21.41;nan;99418.44;4920678;28;20493;-77
2023/09/13 06:43:41;;;;;;;5.33;4.37;;;;;;;21.50;nan;99421.09;4927441;28;20201;-77
2023/09/13 06:46:07;;;;;;;5.40;4.10;;;;;;;21.54;nan;99422.41;4927637;28;20580;-77
2023/09/13 06:48:33;;;;;;;7.77;4.10;;;;;;;21.60;nan;99432.38;4929322;28;20435;-78
2023/09/13 06:50:58;;;;;;;4.00;3.00;;;;;;;21.63;nan;99430.22;4925013;28;20233;-78
2023/09/13 06:53:24;;;;;;;4.53;3.80;;;;;;;21.67;nan;99433.38;4922000;28;20539;-77
2023/09/13 06:55:51;;;;;;;5.17;4.43;;;;;;;21.65;nan;99438.88;4922156;28;20319;-77
2023/09/13 06:58:16;;;;;;;4.40;3.40;;;;;;;21.66;nan;99442.41;4929430;28;20524;-77
2023/09/13 07:00:42;;;;;;;6.80;4.53;;;;;;;21.65;nan;99443.41;4925918;28;20447;-77
2023/09/13 07:03:08;;;;;;;5.80;4.50;;;;;;;21.64;nan;99439.91;4925748;28;20283;-79
2023/09/13 07:05:34;;;;;;;6.37;4.17;;;;;;;21.66;nan;99445.06;4931021;28;20196;-75
2023/09/13 07:08:00;;;;;;;5.90;4.10;;;;;;;21.67;nan;99445.91;4923767;28;20514;-77
2023/09/13 07:10:26;;;;;;;7.20;5.37;;;;;;;21.66;nan;99450.44;4925914;28;20463;-77
2023/09/13 07:12:52;;;;;;;6.47;4.83;;;;;;;21.71;nan;99458.75;4921254;28;20215;-77
2023/09/13 07:15:18;;;;;;;4.80;4.27;;;;;;;21.76;nan;99460.91;4924135;28;20485;-77
2023/09/13 07:21:17;;;;;;;6.27;4.40;;;;;;;21.92;nan;99465.34;4915280;28;20461;-90
2023/09/13 07:23:51;;;;;;;5.13;4.00;;;;;;;21.97;nan;99462.97;4903214;29;20435;-89
2023/09/13 07:26:17;;;;;;;5.97;4.27;;;;;;;21.98;nan;99469.97;4916729;28;20424;-91
2023/09/13 07:28:43;;;;;;;6.40;4.30;;;;;;;21.99;nan;99466.31;4905615;29;20240;-89
2023/09/13 07:31:11;;;;;;;5.63;3.90;;;;;;;22.03;nan;99473.81;4900911;29;20197;-89
2023/09/13 07:33:44;;;;;;;6.60;4.20;;;;;;;22.09;nan;99472.28;4900429;29;20194;-90
2023/09/13 07:36:10;;;;;;;6.00;3.77;;;;;;;22.13;nan;99478.13;4894803;29;20508;-90
2023/09/13 07:38:37;;;;;;;3.90;3.50;;;;;;;22.11;nan;99475.59;4897260;29;20461;-90
2023/09/13 07:41:06;;;;;;;5.37;4.63;;;;;;;22.17;nan;99472.25;4898043;29;20461;-88
2023/09/13 07:43:35;;;;;;;5.80;4.17;;;;;;;22.24;nan;99475.91;4882384;29;20470;-91
2023/09/13 07:46:03;;;;;;;5.47;4.00;;;;;;;22.33;nan;99471.31;4899006;29;20424;-89
2023/09/13 07:48:29;;;;;;;4.70;4.07;;;;;;;22.39;nan;99472.50;4898588;29;20590;-90
2023/09/13 07:50:54;;;;;;;7.30;4.63;;;;;;;22.41;nan;99475.81;4909953;29;21403;-89
2023/09/13 07:53:20;;;;;;;4.70;3.47;;;;;;;22.40;nan;99487.53;4897901;29;20245;-89
2023/09/13 07:55:46;;;;;;;6.00;4.43;;;;;;;22.44;nan;99486.16;4897366;29;20828;-90
2023/09/13 07:58:15;;;;;;;5.93;4.13;;;;;;;22.51;nan;99489.78;4897826;29;20197;-90
2023/09/13 08:00:46;;;;;;;6.13;3.57;;;;;;;22.66;nan;99490.69;4901734;29;20206;-90
2023/09/13 08:03:19;;;;;;;6.80;3.50;;;;;;;22.82;nan;99486.22;4905794;29;20459;-90
2023/09/13 08:05:48;;;;;;;6.30;3.30;;;;;;;22.98;nan;99483.47;4906383;29;20446;-89
2023/09/13 08:08:15;;;;;;;6.10;3.60;;;;;;;23.09;nan;99480.34;4907451;29;20475;-89
2023/09/13 08:10:44;;;;;;;5.10;3.80;;;;;;;23.17;nan;99490.97;4908741;29;20567;-90
2023/09/13 08:13:11;;;;;;;3.20;2.90;;;;;;;23.32;nan;99490.16;4908167;29;20547;-90
2023/09/13 08:15:42;;;;;;;5.83;3.37;;;;;;;23.50;nan;99489.81;4906934;29;20809;-92
2023/09/13 08:18:11;;;;;;;5.33;3.70;;;;;;;23.68;nan;99484.06;4902069;29;20785;-91
2023/09/13 08:20:41;;;;;;;4.50;3.40;;;;;;;23.80;nan;99491.50;4901749;29;20487;-91
2023/09/13 08:23:09;;;;;;;4.00;3.33;;;;;;;23.91;nan;99492.88;4901910;29;20472;-90
2023/09/13 08:25:38;;;;;;;5.20;3.00;;;;;;;24.05;nan;99497.38;4914467;29;20461;-90
2023/09/13 08:28:09;;;;;;;4.90;3.47;;;;;;;24.37;nan;99489.91;4910787;29;20985;-91
2023/09/13 08:30:44;;;;;;;5.07;3.33;;;;;;;24.86;nan;99499.13;4898864;29;20500;-91
2023/09/13 08:33:18;;;;;;;5.37;3.13;;;;;;;25.34;nan;99492.09;4897895;29;20517;-91
2023/09/13 08:35:43;;;;;;;3.03;2.73;;;;;;;25.71;nan;99503.50;4901553;29;20491;-91
2023/09/13 08:38:11;;;;;;;10.63;3.43;;;;;;;25.99;nan;99502.63;4901166;29;20457;-91
2023/09/13 08:40:54;;;;;;;3.00;2.77;;;;;;;26.26;nan;99501.72;4899566;29;20202;-90
2023/09/13 08:43:54;;;;;;;;;;;;;;;;;;;;;
2023/09/13 08:46:28;;;;;;;4.47;2.40;;;;;;;26.54;nan;99511.53;4921376;29;21068;-91
2023/09/13 08:49:06;;;;;;;;;;;;;;;;;;;;;
2023/09/13 08:51:42;;;;;;;2.83;2.20;;;;;;;26.55;nan;99513.22;4899337;29;20457;-91
2023/09/13 08:54:29;;;;;;;;;;;;;;;;;;;;;
2023/09/13 08:57:05;;;;;;;3.20;2.30;;;;;;;26.01;nan;99514.03;4929562;29;20469;-90
2023/09/13 08:59:33;;;;;;;2.60;2.37;;;;;;;25.67;nan;99518.38;4903822;29;20834;-90
2023/09/13 09:02:02;;;;;;;2.00;1.63;;;;;;;25.37;nan;99529.34;4920712;29;20458;-91
2023/09/13 09:04:29;;;;;;;3.10;2.30;;;;;;;25.21;nan;99523.44;4903929;29;20557;-91
2023/09/13 09:06:57;;;;;;;4.80;2.90;;;;;;;25.14;nan;99528.69;4908031;29;20497;-91
2023/09/13 09:09:39;;;;;;;3.37;2.53;;;;;;;25.19;nan;99528.97;4909230;29;20470;-91
2023/09/13 09:12:21;;;;;;;;;;;;;;;;;;;;;
2023/09/13 09:15:01;;;;;;;3.17;2.90;;;;;;;25.62;nan;99531.56;4913702;29;20502;-91
2023/09/13 09:17:48;;;;;;;3.07;2.27;;;;;;;25.88;nan;99532.81;4902936;29;20468;-91
2023/09/13 09:20:28;;;;;;;3.80;2.60;;;;;;;25.83;nan;99539.59;4905669;29;20479;-90
2023/09/13 09:22:59;;;;;;;5.00;2.57;;;;;;;25.77;nan;99531.47;4916680;29;20464;-90
2023/09/13 09:25:30;;;;;;;3.50;2.90;;;;;;;25.75;nan;99530.84;4907027;29;20464;-90
2023/09/13 09:28:04;;;;;;;2.80;2.43;;;;;;;25.75;nan;99534.34;4906139;29;21098;-91
2023/09/13 09:30:36;;;;;;;3.13;2.20;;;;;;;25.68;nan;99528.13;4902981;29;20833;-90
2023/09/13 09:33:42;;;;;;;3.40;2.00;;;;;;;25.60;nan;99533.66;4902581;29;20532;-92
2023/09/13 09:36:13;;;;;;;3.75;2.95;;;;;;;25.52;nan;99536.47;4911077;29;20946;-90
2023/09/13 09:38:44;;;;;;;5.00;2.67;;;;;;;25.42;nan;99544.06;4904453;29;20209;-92
2023/09/13 09:41:10;;;;;;;3.03;2.73;;;;;;;25.32;nan;99534.47;4901328;29;20632;-90
2023/09/13 09:43:36;;;;;;;3.33;2.60;;;;;;;25.21;nan;99534.19;4900919;29;20489;-91
2023/09/13 09:46:02;;;;;;;2.97;2.70;;;;;;;25.03;nan;99534.59;4917926;28;20237;-89
2023/09/13 09:48:28;;;;;;;5.60;2.27;;;;;;;24.97;nan;99536.22;4903054;29;20451;-91
2023/09/13 09:50:57;;;;;;;3.83;2.23;;;;;;;24.95;nan;99544.47;4895976;29;20642;-91
2023/09/13 09:53:24;;;;;;;4.33;2.80;;;;;;;24.97;nan;99554.19;4898123;29;20822;-90
2023/09/13 09:55:53;;;;;;;4.30;3.70;;;;;;;25.01;nan;99547.44;4902475;29;20484;-90
2023/09/13 09:58:18;;;;;;;4.80;2.30;;;;;;;24.95;nan;99551.69;4896535;29;20464;-90
2023/09/13 10:00:47;;;;;;;3.70;2.90;;;;;;;24.97;nan;99552.34;4911744;28;20820;-90
2023/09/13 10:03:17;;;;;;;3.37;2.67;;;;;;;25.03;nan;99550.72;4902714;29;20656;-91
2023/09/13 10:05:55;;;;;;;4.45;3.67;;;;;;;25.15;nan;99544.69;4903301;29;20445;-91
2023/09/13 10:08:43;;;;;;;3.57;2.77;;;;;;;25.26;nan;99546.00;4898706;29;20198;-89
2023/09/13 10:11:16;;;;;;;3.67;2.47;;;;;;;25.38;nan;99538.22;4901227;29;20442;-91
2023/09/13 10:13:47;;;;;;;3.30;2.97;;;;;;;25.43;nan;99543.03;4904641;29;20523;-91
2023/09/13 10:16:15;;;;;;;4.67;3.10;;;;;;;25.51;nan;99543.72;4899624;29;20465;-90
2023/09/13 10:18:48;;;;;;;3.30;2.07;;;;;;;25.61;nan;99541.50;4899502;29;20457;-92
2023/09/13 10:21:24;;;;;;;2.73;2.53;;;;;;;25.72;nan;99542.81;4902966;29;20856;-89
2023/09/13 10:24:06;;;;;;;2.60;2.40;;;;;;;25.82;nan;99543.31;4899394;29;20977;-90
2023/09/13 10:26:38;;;;;;;3.23;2.30;;;;;;;25.85;nan;99543.97;4903580;29;20469;-91
2023/09/13 10:29:07;;;;;;;2.93;2.10;;;;;;;25.90;nan;99547.72;4901005;29;20472;-90
2023/09/13 10:31:39;;;;;;;3.70;2.90;;;;;;;25.96;nan;99540.72;4904754;29;20483;-90
2023/09/13 10:34:14;;;;;;;3.40;3.10;;;;;;;25.98;nan;99546.75;4900692;29;20661;-90
2023/09/13 10:36:52;;;;;;;3.00;2.70;;;;;;;26.01;nan;99541.78;4895003;29;21337;-90
2023/09/13 10:39:34;;;;;;;2.73;2.53;;;;;;;26.05;nan;99539.50;4901307;29;20495;-91
2023/09/13 10:42:07;;;;;;;2.30;2.10;;;;;;;26.00;nan;99536.59;4901572;29;20632;-90
2023/09/13 10:44:40;;;;;;;3.03;2.70;;;;;;;25.97;nan;99539.69;4898575;29;20457;-90
2023/09/13 10:47:11;;;;;;;3.40;3.10;;;;;;;26.05;nan;99542.19;4904113;29;20967;-90
2023/09/13 10:49:38;;;;;;;4.63;3.20;;;;;;;26.19;nan;99535.88;4903399;29;20476;-89
2023/09/13 10:52:09;;;;;;;2.20;2.10;;;;;;;26.26;nan;99544.78;4896393;29;21046;-91
2023/09/13 10:54:37;;;;;;;2.83;2.63;;;;;;;26.28;nan;99541.91;4897817;29;20469;-89
2023/09/13 10:57:04;;;;;;;3.80;2.67;;;;;;;26.31;nan;99535.28;4901257;29;20470;-91
2023/09/13 10:59:30;;;;;;;3.77;2.20;;;;;;;26.22;nan;99535.47;4897750;29;20461;-90
2023/09/13 11:01:58;;;;;;;2.70;2.50;;;;;;;26.18;nan;99536.06;4898528;29;20457;-89
2023/09/13 11:04:24;;;;;;;5.20;2.63;;;;;;;26.14;nan;99535.63;4906680;29;20209;-91
2023/09/13 11:06:53;;;;;;;5.83;2.80;;;;;;;26.17;nan;99535.22;4909845;29;20528;-91
2023/09/13 11:09:26;;;;;;;3.60;3.20;;;;;;;26.29;nan;99531.97;4912406;29;21288;-90
2023/09/13 11:11:52;;;;;;;3.27;2.73;;;;;;;26.44;nan;99538.03;4909692;29;20491;-89
2023/09/13 11:14:31;;;;;;;3.20;2.90;;;;;;;26.53;nan;99538.69;4898902;29;20652;-90
2023/09/13 11:17:37;;;;;;;3.50;2.87;;;;;;;26.30;nan;99539.00;4899674;29;20544;-90
2023/09/13 11:20:38;;;;;;;4.10;3.13;;;;;;;26.05;nan;99544.91;4900936;29;20890;-91
2023/09/13 11:23:10;;;;;;;5.20;2.90;;;;;;;25.94;nan;99553.53;4902369;29;20823;-89
2023/09/13 11:25:41;;;;;;;3.23;2.93;;;;;;;25.84;nan;99559.25;4900877;29;20522;-88
2023/09/13 11:28:09;;;;;;;4.40;3.60;;;;;;;25.69;nan;99553.97;4900003;29;20484;-89
2023/09/13 11:30:51;;;;;;;3.50;3.20;;;;;;;25.58;nan;99568.81;4902847;29;20586;-89
2023/09/13 11:33:24;;;;;;;4.83;2.90;;;;;;;25.43;nan;99567.22;4900225;29;20944;-90
2023/09/13 11:36:17;;;;;;;3.20;2.67;;;;;;;25.18;nan;99573.03;4899870;29;20572;-90
2023/09/13 11:38:44;;;;;;;2.70;2.37;;;;;;;24.94;nan;99579.59;4900630;29;20490;-90
2023/09/13 11:41:16;;;;;;;3.07;2.40;;;;;;;24.80;nan;99583.16;4901029;29;20434;-91
2023/09/13 11:43:42;;;;;;;2.13;1.90;;;;;;;24.69;nan;99587.19;4904236;29;20780;-90
2023/09/13 11:46:08;;;;;;;2.17;1.63;;;;;;;24.58;nan;99585.00;4900500;29;20511;-89
2023/09/13 11:48:42;;;;;;;1.80;1.57;;;;;;;24.48;nan;99594.16;4900280;29;20810;-89
2023/09/13 11:51:14;;;;;;;2.60;2.10;;;;;;;24.43;nan;99591.19;4917789;28;21041;-89
2023/09/13 11:53:46;;;;;;;5.40;2.07;;;;;;;24.36;nan;99584.91;4899734;29;20580;-89
2023/09/13 11:56:34;;;;;;;2.67;2.47;;;;;;;24.25;nan;99590.75;4897088;29;20496;-90
2023/09/13 11:59:01;;;;;;;2.73;2.10;;;;;;;24.18;nan;99593.34;4898617;29;21090;-90
2023/09/13 12:01:29;;;;;;;2.50;2.30;;;;;;;24.07;nan;99586.59;4904193;29;20463;-91
2023/09/13 12:04:06;;;;;;;3.17;2.63;;;;;;;23.94;nan;99585.56;4905695;29;20440;-92
2023/09/13 12:06:44;;;;;;;2.67;2.47;;;;;;;23.80;nan;99585.38;4904581;29;20462;-92